createdAt,value
2023-01-28T00:01:31.035Z,-1.87
2023-01-28T00:03:58.137Z,-1.64
2023-01-28T00:06:25.787Z,-1.29
2023-01-28T00:08:52.967Z,-1.17
2023-01-28T00:11:22.551Z,-1.11
2023-01-28T00:13:54.224Z,-0.96
2023-01-28T00:16:27.261Z,-1.03
2023-01-28T00:18:55.145Z,-1.02
2023-01-28T00:21:23.292Z,-1.04
2023-01-28T00:23:56.348Z,-1.15
2023-01-28T00:26:25.398Z,-1.00
2023-01-28T00:28:52.473Z,-1.11
2023-01-28T00:31:25.387Z,-0.94
2023-01-28T00:33:55.614Z,-0.91
2023-01-28T00:36:25.395Z,-0.95
2023-01-28T00:38:55.129Z,-0.97
2023-01-28T00:41:24.743Z,-1.00
2023-01-28T00:43:53.312Z,-1.11
2023-01-28T00:46:22.144Z,-1.03
2023-01-28T00:48:49.529Z,-1.39
2023-01-28T00:51:18.249Z,-1.46
2023-01-28T00:53:45.543Z,-1.65
2023-01-28T00:56:17.947Z,-1.72
2023-01-28T00:58:45.240Z,-2.13
2023-01-28T01:01:16.281Z,-1.94
2023-01-28T01:03:44.206Z,-1.73
2023-01-28T01:06:12.829Z,-1.46
2023-01-28T01:08:43.350Z,-1.53
2023-01-28T01:11:13.512Z,-1.57
2023-01-28T01:13:41.164Z,-1.74
2023-01-28T01:16:16.753Z,-1.78
2023-01-28T01:18:44.130Z,-1.51
2023-01-28T01:21:14.051Z,-1.61
2023-01-28T01:23:41.274Z,-1.66
2023-01-28T01:26:08.708Z,-1.77
2023-01-28T01:28:36.583Z,-1.57
2023-01-28T01:31:16.147Z,-1.49
2023-01-28T01:33:46.661Z,-1.61
2023-01-28T01:36:15.665Z,-1.71
2023-01-28T01:38:43.528Z,-1.89
2023-01-28T01:41:25.681Z,-1.90
2023-01-28T01:43:54.684Z,-1.96
2023-01-28T01:46:43.983Z,-1.72
2023-01-28T01:49:23.637Z,-1.60
2023-01-28T01:52:07.305Z,-1.39
2023-01-28T01:54:36.453Z,-1.43
2023-01-28T01:57:08.691Z,-1.44
2023-01-28T01:59:37.269Z,-1.69
2023-01-28T02:02:07.871Z,-1.62
2023-01-28T02:04:41.752Z,-1.83
2023-01-28T02:07:12.577Z,-1.93
2023-01-28T02:09:41.789Z,-1.92
2023-01-28T02:12:18.364Z,-2.07
2023-01-28T02:14:55.297Z,-2.10
2023-01-28T02:17:23.895Z,-2.35
2023-01-28T02:20:02.334Z,-2.04
2023-01-28T02:22:35.177Z,-2.12
2023-01-28T02:25:21.722Z,-2.03
2023-01-28T02:28:08.883Z,-1.97
2023-01-28T02:30:40.842Z,-1.82
2023-01-28T02:33:44.284Z,-1.73
2023-01-28T02:36:22.307Z,-1.74
2023-01-28T02:38:53.152Z,-1.92
2023-01-28T02:41:29.091Z,-2.00
2023-01-28T02:43:56.232Z,-1.96
2023-01-28T02:46:54.585Z,-1.82
2023-01-28T02:49:28.607Z,-1.74
2023-01-28T02:51:58.896Z,-1.66
2023-01-28T02:54:58.432Z,-1.78
2023-01-28T02:57:36.028Z,-2.02
2023-01-28T03:00:17.984Z,-2.12
2023-01-28T03:02:54.815Z,-2.03
2023-01-28T03:05:37.564Z,-2.07
2023-01-28T03:08:27.541Z,-2.36
2023-01-28T03:11:16.143Z,-2.17
2023-01-28T03:14:03.777Z,-2.18
2023-01-28T03:16:52.513Z,-2.32
2023-01-28T03:19:39.479Z,-2.25
2023-01-28T03:22:24.865Z,-2.29
2023-01-28T03:25:12.505Z,-2.13
2023-01-28T03:28:12.075Z,-2.16
2023-01-28T03:31:07.681Z,-1.87
2023-01-28T03:34:00.810Z,-1.89
2023-01-28T03:36:51.329Z,-1.80
2023-01-28T03:39:38.652Z,-1.68
2023-01-28T03:42:11.503Z,-1.81
2023-01-28T03:44:56.187Z,-1.81
2023-01-28T03:47:27.662Z,-1.53
2023-01-28T03:49:56.833Z,-1.83
2023-01-28T03:52:27.110Z,-1.91
2023-01-28T03:55:01.196Z,-1.88
2023-01-28T03:57:31.693Z,-2.02
2023-01-28T03:59:59.188Z,-1.97
2023-01-28T04:02:27.437Z,-1.82
2023-01-28T04:04:54.768Z,-1.80
2023-01-28T04:07:22.587Z,-1.68
2023-01-28T04:10:14.697Z,-1.71
2023-01-28T04:12:56.052Z,-1.55
2023-01-28T04:15:25.719Z,-1.52
2023-01-28T04:17:54.564Z,-1.62
2023-01-28T04:20:29.129Z,-1.62
2023-01-28T04:22:59.026Z,-1.73
2023-01-28T04:25:26.254Z,-1.81
2023-01-28T04:27:54.160Z,-1.87
2023-01-28T04:30:23.273Z,-1.74
2023-01-28T04:33:10.795Z,-1.37
2023-01-28T04:35:58.278Z,-1.50
2023-01-28T04:38:36.557Z,-1.46
2023-01-28T04:41:17.796Z,-1.55
2023-01-28T04:43:46.688Z,-1.44
2023-01-28T04:46:34.197Z,-1.47
2023-01-28T04:49:13.244Z,-1.47
2023-01-28T04:52:10.543Z,-1.48
2023-01-28T04:55:01.773Z,-1.43
2023-01-28T04:57:30.502Z,-1.24
2023-01-28T04:59:57.954Z,-1.17
2023-01-28T05:02:27.423Z,-1.04
2023-01-28T05:04:54.486Z,-1.07
2023-01-28T05:07:53.254Z,-0.77
2023-01-28T05:10:20.712Z,-0.79
2023-01-28T05:12:48.840Z,-0.71
2023-01-28T05:15:17.622Z,-0.79
2023-01-28T05:17:49.650Z,-0.80
2023-01-28T05:20:20.400Z,-0.67
2023-01-28T05:22:49.978Z,-0.61
2023-01-28T05:25:21.090Z,-0.48
2023-01-28T05:27:52.519Z,-0.68
2023-01-28T05:30:21.095Z,-0.62
2023-01-28T05:32:48.905Z,-0.90
2023-01-28T05:35:20.478Z,-0.75
2023-01-28T05:37:47.900Z,-0.97
2023-01-28T05:40:18.009Z,-0.64
2023-01-28T05:42:46.008Z,-0.29
2023-01-28T05:45:27.624Z,-0.48
2023-01-28T05:48:04.759Z,-0.55
2023-01-28T05:50:50.857Z,-0.68
2023-01-28T05:53:21.347Z,-0.40
2023-01-28T05:55:53.701Z,-0.83
2023-01-28T05:58:21.946Z,-0.76
2023-01-28T06:00:49.069Z,-0.64
2023-01-28T06:03:20.246Z,-1.05
2023-01-28T06:05:48.654Z,-0.90
2023-01-28T06:08:16.837Z,-0.77
2023-01-28T06:10:43.904Z,-0.58
2023-01-28T06:13:12.768Z,-0.64
2023-01-28T06:15:40.015Z,-0.52
2023-01-28T06:18:36.794Z,-0.42
2023-01-28T06:21:04.429Z,-0.46
2023-01-28T06:23:31.691Z,-0.36
2023-01-28T06:25:58.965Z,-0.39
2023-01-28T06:28:26.447Z,-0.38
2023-01-28T06:30:54.229Z,-0.41
2023-01-28T06:33:24.448Z,-0.59
2023-01-28T06:35:51.562Z,-0.60
2023-01-28T06:38:18.807Z,-0.48
2023-01-28T06:40:51.636Z,-0.25
2023-01-28T06:43:19.419Z,-0.18
2023-01-28T06:45:46.549Z,-0.15
2023-01-28T06:48:13.745Z,-0.30
2023-01-28T06:50:40.930Z,-0.32
2023-01-28T06:53:07.940Z,-0.33
2023-01-28T06:55:35.005Z,-0.33
2023-01-28T06:58:02.102Z,-0.44
2023-01-28T07:00:29.194Z,-0.44
2023-01-28T07:02:57.465Z,-0.48
2023-01-28T07:05:25.515Z,-0.62
2023-01-28T07:07:52.934Z,-0.77
2023-01-28T07:10:20.148Z,-0.77
2023-01-28T07:12:47.273Z,-0.53
2023-01-28T07:15:15.667Z,-0.64
2023-01-28T07:17:43.337Z,-0.67
2023-01-28T07:20:13.433Z,-0.54
2023-01-28T07:22:42.101Z,-0.44
2023-01-28T07:25:12.041Z,-0.57
2023-01-28T07:27:40.345Z,-0.41
2023-01-28T07:30:09.401Z,-0.54
2023-01-28T07:32:36.450Z,-0.38
2023-01-28T07:35:03.784Z,-0.44
2023-01-28T07:37:31.191Z,-0.35
2023-01-28T07:39:58.185Z,-0.34
2023-01-28T07:42:25.299Z,-0.15
2023-01-28T07:44:53.614Z,-0.04
2023-01-28T07:47:22.132Z,-0.21
2023-01-28T07:49:49.181Z,-0.12
2023-01-28T07:52:16.418Z,-0.01
2023-01-28T07:54:43.601Z,0.05
2023-01-28T07:57:11.962Z,0.42
2023-01-28T07:59:39.431Z,0.06
2023-01-28T08:02:06.793Z,0.25
2023-01-28T08:04:34.764Z,0.44
2023-01-28T08:07:01.889Z,0.40
2023-01-28T08:09:29.497Z,0.52
2023-01-28T08:11:56.510Z,0.65
2023-01-28T08:14:23.654Z,0.99
2023-01-28T08:16:50.783Z,1.13
2023-01-28T08:19:18.861Z,1.29
2023-01-28T08:21:48.241Z,1.45
2023-01-28T08:24:15.431Z,1.31
2023-01-28T08:26:44.154Z,1.68
2023-01-28T08:29:11.275Z,1.89
2023-01-28T08:31:38.361Z,1.98
2023-01-28T08:34:05.446Z,2.19
2023-01-28T08:36:32.803Z,2.37
2023-01-28T08:38:59.874Z,2.08
2023-01-28T08:41:26.957Z,2.17
2023-01-28T08:43:56.194Z,2.43
2023-01-28T08:46:25.974Z,2.72
2023-01-28T08:48:53.357Z,3.03
2023-01-28T08:51:20.504Z,3.25
2023-01-28T08:53:47.587Z,3.35
2023-01-28T08:56:15.063Z,3.34
2023-01-28T08:58:42.442Z,3.49
2023-01-28T09:01:09.612Z,3.37
2023-01-28T09:03:36.806Z,3.30
2023-01-28T09:06:04.889Z,3.10
2023-01-28T09:08:32.186Z,3.28
2023-01-28T09:11:00.707Z,3.44
2023-01-28T09:13:28.757Z,3.58
2023-01-28T09:15:56.429Z,3.81
2023-01-28T09:18:23.906Z,4.05
2023-01-28T09:20:50.979Z,3.95
2023-01-28T09:23:18.179Z,3.85
2023-01-28T09:25:45.541Z,3.99
2023-01-28T09:28:12.607Z,4.21
2023-01-28T09:30:40.779Z,4.09
2023-01-28T09:33:08.649Z,4.10
2023-01-28T09:35:37.131Z,4.33
2023-01-28T09:38:04.928Z,4.60
2023-01-28T09:40:40.634Z,4.79
2023-01-28T09:43:25.856Z,4.86
2023-01-28T09:46:00.490Z,4.95
2023-01-28T09:48:33.848Z,4.85
2023-01-28T09:51:01.907Z,4.70
2023-01-28T09:53:32.514Z,4.76
2023-01-28T09:56:06.540Z,4.85
2023-01-28T09:58:33.669Z,4.81
2023-01-28T10:01:15.944Z,4.89
2023-01-28T10:04:17.266Z,5.14
2023-01-28T10:07:32.381Z,5.24
2023-01-28T10:10:08.929Z,5.18
2023-01-28T10:12:50.742Z,5.33
2023-01-28T10:15:39.592Z,5.38
2023-01-28T10:18:16.987Z,5.23
2023-01-28T10:21:07.896Z,5.29
2023-01-28T10:23:42.194Z,5.65
2023-01-28T10:26:28.013Z,5.87
2023-01-28T10:29:04.314Z,5.78
2023-01-28T10:31:37.315Z,5.87
2023-01-28T10:34:04.985Z,5.75
2023-01-28T10:36:32.106Z,5.89
2023-01-28T10:38:59.413Z,5.92
2023-01-28T10:41:27.026Z,6.10
2023-01-28T10:43:54.317Z,6.09
2023-01-28T10:46:30.181Z,6.27
2023-01-28T10:49:15.410Z,6.57
2023-01-28T10:51:47.259Z,6.73
2023-01-28T10:54:22.977Z,6.76
2023-01-28T10:57:01.595Z,6.62
2023-01-28T10:59:41.863Z,6.47
2023-01-28T11:02:37.313Z,6.50
2023-01-28T11:05:17.625Z,6.48
2023-01-28T11:07:49.071Z,6.80
2023-01-28T11:10:38.117Z,7.01
2023-01-28T11:13:07.167Z,6.94
2023-01-28T11:15:35.262Z,6.95
2023-01-28T11:18:15.573Z,6.95
2023-01-28T11:20:49.745Z,6.94
2023-01-28T11:23:23.784Z,6.84
2023-01-28T11:26:02.581Z,6.74
2023-01-28T11:28:31.741Z,6.75
2023-01-28T11:31:02.374Z,6.72
2023-01-28T11:33:53.277Z,7.27
2023-01-28T11:36:22.850Z,7.04
2023-01-28T11:38:59.052Z,6.92
2023-01-28T11:41:34.593Z,6.95
2023-01-28T11:44:21.957Z,6.96
2023-01-28T11:47:17.153Z,6.91
2023-01-28T11:49:50.149Z,6.93
2023-01-28T11:53:02.651Z,7.10
2023-01-28T11:55:34.920Z,7.05
2023-01-28T11:58:33.464Z,7.30
2023-01-28T12:01:35.782Z,7.44
2023-01-28T12:04:12.154Z,7.15
2023-01-28T12:06:59.092Z,7.18
2023-01-28T12:09:45.667Z,6.95
2023-01-28T12:12:43.525Z,6.90
2023-01-28T12:15:30.269Z,6.94
2023-01-28T12:18:25.212Z,6.88
2023-01-28T12:21:11.520Z,6.87
2023-01-28T12:23:47.893Z,6.92
2023-01-28T12:26:36.896Z,6.91
2023-01-28T12:29:26.108Z,6.97
2023-01-28T12:31:53.748Z,6.90
2023-01-28T12:34:33.116Z,6.87
2023-01-28T12:37:25.827Z,7.14
2023-01-28T12:39:52.832Z,7.07
2023-01-28T12:42:42.087Z,7.04
2023-01-28T12:45:35.446Z,7.16
2023-01-28T12:48:11.521Z,7.33
2023-01-28T12:50:46.720Z,7.58
2023-01-28T12:53:19.753Z,7.70
2023-01-28T12:55:53.403Z,7.72
2023-01-28T12:58:29.859Z,7.60
2023-01-28T13:01:02.905Z,7.40
2023-01-28T13:03:48.693Z,7.47
2023-01-28T13:06:31.860Z,7.46
2023-01-28T13:09:06.671Z,7.39
2023-01-28T13:11:36.578Z,7.34
2023-01-28T13:14:05.167Z,7.20
2023-01-28T13:16:37.945Z,7.36
2023-01-28T13:19:09.110Z,7.30
2023-01-28T13:21:47.652Z,7.23
2023-01-28T13:24:16.325Z,7.26
2023-01-28T13:26:56.560Z,7.00
2023-01-28T13:29:34.140Z,7.18
2023-01-28T13:32:04.486Z,6.96
2023-01-28T13:35:02.588Z,6.95
2023-01-28T13:37:36.074Z,6.93
2023-01-28T13:40:03.326Z,7.23
2023-01-28T13:42:31.759Z,7.18
2023-01-28T13:45:17.173Z,7.07
2023-01-28T13:47:47.860Z,6.94
2023-01-28T13:50:24.304Z,7.08
2023-01-28T13:52:58.587Z,7.05
2023-01-28T13:55:43.478Z,7.23
2023-01-28T13:58:27.919Z,7.54
2023-01-28T14:01:32.477Z,7.31
2023-01-28T14:04:11.619Z,7.25
2023-01-28T14:06:57.783Z,7.23
2023-01-28T14:09:49.833Z,7.14
2023-01-28T14:12:46.326Z,7.13
2023-01-28T14:15:50.821Z,7.14
2023-01-28T14:18:38.348Z,6.85
2023-01-28T14:21:18.754Z,6.55
2023-01-28T14:23:52.035Z,6.58
2023-01-28T14:26:33.088Z,6.56
2023-01-28T14:29:16.552Z,6.23
2023-01-28T14:31:45.075Z,6.08
2023-01-28T14:34:34.892Z,6.44
2023-01-28T14:37:13.183Z,6.67
2023-01-28T14:39:48.546Z,6.73
2023-01-28T14:42:24.757Z,6.78
2023-01-28T14:45:37.891Z,7.21
2023-01-28T14:48:25.407Z,7.38
2023-01-28T14:51:01.456Z,7.13
2023-01-28T14:53:55.230Z,7.22
2023-01-28T14:56:36.482Z,7.04
2023-01-28T14:59:16.978Z,7.04
2023-01-28T15:01:47.112Z,7.01
2023-01-28T15:04:31.603Z,7.14
2023-01-28T15:07:22.024Z,7.25
2023-01-28T15:10:01.343Z,7.15
2023-01-28T15:12:33.163Z,7.13
2023-01-28T15:15:28.456Z,7.01
2023-01-28T15:18:23.543Z,6.85
2023-01-28T15:20:54.391Z,6.57
2023-01-28T15:23:38.663Z,6.15
2023-01-28T15:26:18.890Z,5.81
2023-01-28T15:28:48.191Z,5.55
2023-01-28T15:31:39.361Z,5.32
2023-01-28T15:34:15.721Z,4.86
2023-01-28T15:36:44.116Z,4.61
2023-01-28T15:39:22.350Z,4.34
2023-01-28T15:41:54.916Z,4.18
2023-01-28T15:44:30.210Z,3.89
2023-01-28T15:46:59.354Z,3.62
2023-01-28T15:49:33.210Z,3.47
2023-01-28T15:52:00.783Z,3.49
2023-01-28T15:54:30.416Z,3.33
2023-01-28T15:57:08.390Z,3.28
2023-01-28T15:59:35.686Z,3.20
2023-01-28T16:02:20.381Z,3.06
2023-01-28T16:05:00.985Z,3.16
2023-01-28T16:07:44.087Z,2.89
2023-01-28T16:10:28.925Z,3.06
2023-01-28T16:13:12.237Z,2.88
2023-01-28T16:15:41.848Z,2.85
2023-01-28T16:18:39.017Z,3.04
2023-01-28T16:21:15.844Z,3.01
2023-01-28T16:23:53.728Z,2.87
2023-01-28T16:26:28.561Z,2.88
2023-01-28T16:28:56.528Z,3.10
2023-01-28T16:31:23.942Z,2.83
2023-01-28T16:33:54.855Z,2.88
2023-01-28T16:36:30.768Z,2.82
2023-01-28T16:41:32.544Z,2.93
2023-01-28T16:44:03.276Z,2.81
2023-01-28T16:46:30.472Z,2.88
2023-01-28T16:48:58.381Z,2.84
2023-01-28T16:51:25.969Z,2.96
2023-01-28T16:53:54.668Z,2.79
2023-01-28T16:56:44.039Z,2.70
2023-01-28T16:59:15.915Z,2.73
2023-01-28T17:01:45.360Z,2.89
2023-01-28T17:04:13.580Z,2.85
2023-01-28T17:06:44.760Z,2.95
2023-01-28T17:09:13.736Z,2.89
2023-01-28T17:11:41.086Z,2.81
2023-01-28T17:14:09.199Z,2.86
2023-01-28T17:16:36.465Z,3.07
2023-01-28T17:19:04.049Z,3.23
2023-01-28T17:21:31.442Z,3.02
2023-01-28T17:24:00.442Z,2.99
2023-01-28T17:26:30.331Z,3.05
2023-01-28T17:28:57.894Z,3.08
2023-01-28T17:31:26.651Z,3.26
2023-01-28T17:33:56.070Z,3.07
2023-01-28T17:36:24.794Z,3.13
2023-01-28T17:38:53.452Z,2.99
2023-01-28T17:41:21.112Z,3.10
2023-01-28T17:43:52.768Z,3.08
2023-01-28T17:46:20.786Z,3.05
2023-01-28T17:48:49.077Z,3.12
2023-01-28T17:51:19.123Z,3.37
2023-01-28T17:53:51.538Z,3.36
2023-01-28T17:56:25.948Z,3.53
2023-01-28T17:58:57.976Z,3.60
2023-01-28T18:01:26.723Z,3.75
2023-01-28T18:03:55.222Z,3.67
2023-01-28T18:06:22.862Z,3.86
2023-01-28T18:08:50.544Z,3.66
2023-01-28T18:11:19.485Z,3.43
2023-01-28T18:13:47.495Z,3.56
2023-01-28T18:16:18.428Z,3.73
2023-01-28T18:18:46.783Z,3.47
2023-01-28T18:21:31.667Z,3.65
2023-01-28T18:24:02.660Z,3.57
2023-01-28T18:26:29.792Z,3.39
2023-01-28T18:28:59.056Z,3.53
2023-01-28T18:31:26.312Z,3.88
2023-01-28T18:33:53.579Z,3.89
2023-01-28T18:36:20.925Z,3.97
2023-01-28T18:38:49.580Z,3.79
2023-01-28T18:41:16.793Z,3.77
2023-01-28T18:43:44.079Z,3.63
2023-01-28T18:46:14.090Z,3.67
2023-01-28T18:48:41.549Z,3.85
2023-01-28T18:51:28.499Z,3.69
2023-01-28T18:53:58.294Z,3.96
2023-01-28T18:56:26.823Z,3.85
2023-01-28T18:59:02.769Z,3.79
2023-01-28T19:01:31.042Z,3.54
2023-01-28T19:03:59.352Z,3.50
2023-01-28T19:06:28.869Z,3.30
2023-01-28T19:09:01.199Z,3.27
2023-01-28T19:11:29.966Z,3.21
2023-01-28T19:13:57.109Z,3.11
2023-01-28T19:16:25.854Z,3.12
2023-01-28T19:18:55.159Z,3.10
2023-01-28T19:21:23.804Z,2.96
2023-01-28T19:23:56.196Z,3.09
2023-01-28T19:26:24.205Z,2.98
2023-01-28T19:28:52.032Z,2.88
2023-01-28T19:31:21.017Z,2.82
2023-01-28T19:33:49.311Z,2.72
2023-01-28T19:36:16.555Z,2.51
2023-01-28T19:38:43.769Z,2.56
2023-01-28T19:41:13.659Z,2.52
2023-01-28T19:43:41.101Z,2.23
2023-01-28T19:46:10.203Z,2.24
2023-01-28T19:48:37.441Z,2.29
2023-01-28T19:51:09.056Z,2.59
2023-01-28T19:53:37.181Z,2.28
2023-01-28T19:56:12.277Z,2.46
2023-01-28T19:58:41.400Z,2.57
2023-01-28T20:01:20.043Z,2.62
2023-01-28T20:03:53.151Z,2.57
2023-01-28T20:06:20.887Z,2.46
2023-01-28T20:08:54.170Z,2.49
2023-01-28T20:11:22.437Z,2.51
2023-01-28T20:13:51.629Z,2.63
2023-01-28T20:16:30.176Z,2.37
2023-01-28T20:19:01.600Z,2.46
2023-01-28T20:21:30.178Z,2.44
2023-01-28T20:23:59.147Z,2.46
2023-01-28T20:26:31.467Z,2.42
2023-01-28T20:29:07.481Z,2.43
2023-01-28T20:31:35.437Z,2.27
2023-01-28T20:34:03.165Z,2.22
2023-01-28T20:36:30.988Z,2.28
2023-01-28T20:38:58.101Z,2.38
2023-01-28T20:41:26.583Z,2.68
2023-01-28T20:43:55.479Z,2.83
2023-01-28T20:46:25.296Z,2.91
2023-01-28T20:48:55.469Z,2.73
2023-01-28T20:51:25.449Z,2.72
2023-01-28T20:53:53.299Z,2.62
2023-01-28T20:56:23.590Z,2.56
2023-01-28T20:58:57.158Z,2.42
2023-01-28T21:01:27.524Z,2.70
2023-01-28T21:03:56.148Z,2.62
2023-01-28T21:06:25.003Z,2.43
2023-01-28T21:08:53.336Z,2.54
2023-01-28T21:11:21.899Z,2.56
2023-01-28T21:13:49.078Z,2.50
2023-01-28T21:16:16.870Z,2.44
2023-01-28T21:18:44.635Z,2.67
2023-01-28T21:21:20.453Z,2.63
2023-01-28T21:23:47.980Z,2.96
2023-01-28T21:26:15.606Z,2.86
2023-01-28T21:28:44.406Z,2.85
2023-01-28T21:31:20.650Z,3.03
2023-01-28T21:33:59.279Z,3.00
2023-01-28T21:36:27.058Z,2.90
2023-01-28T21:38:56.744Z,2.95
2023-01-28T21:41:24.006Z,3.02
2023-01-28T21:43:53.922Z,3.25
2023-01-28T21:46:23.540Z,3.30
2023-01-28T21:48:58.575Z,3.35
2023-01-28T21:51:46.081Z,3.63
2023-01-28T21:54:16.933Z,3.42
2023-01-28T21:56:45.551Z,3.32
2023-01-28T21:59:28.678Z,3.28
2023-01-28T22:01:59.227Z,3.58
2023-01-28T22:04:32.780Z,3.75
2023-01-28T22:07:00.969Z,3.46
2023-01-28T22:09:29.428Z,3.46
2023-01-28T22:11:56.717Z,3.62
2023-01-28T22:14:23.894Z,3.78
2023-01-28T22:16:51.042Z,3.80
2023-01-28T22:19:18.953Z,3.95
2023-01-28T22:21:46.964Z,3.79
2023-01-28T22:24:19.853Z,3.73
2023-01-28T22:26:47.959Z,3.51
2023-01-28T22:29:17.340Z,3.73
2023-01-28T22:31:49.311Z,3.68
2023-01-28T22:34:17.281Z,3.72
2023-01-28T22:36:44.588Z,3.84
2023-01-28T22:39:14.661Z,3.83
2023-01-28T22:41:43.658Z,4.00
2023-01-28T22:44:10.846Z,4.05
2023-01-28T22:46:37.981Z,3.92
2023-01-28T22:49:05.663Z,4.14
2023-01-28T22:51:35.387Z,4.28
2023-01-28T22:54:03.529Z,4.47
2023-01-28T22:56:31.936Z,4.17
2023-01-28T22:59:01.620Z,4.21
2023-01-28T23:01:29.264Z,4.10
2023-01-28T23:03:56.529Z,4.18
2023-01-28T23:06:25.705Z,4.11
2023-01-28T23:08:52.937Z,4.13
2023-01-28T23:11:26.696Z,4.18
2023-01-28T23:14:15.028Z,4.07
2023-01-28T23:17:01.717Z,4.15
2023-01-28T23:19:47.997Z,4.18
2023-01-28T23:22:52.975Z,4.42
2023-01-28T23:25:20.354Z,4.64
2023-01-28T23:27:47.576Z,4.40
2023-01-28T23:30:15.835Z,4.32
2023-01-28T23:32:48.231Z,4.25
2023-01-28T23:35:16.303Z,4.05
2023-01-28T23:37:43.507Z,4.29
2023-01-28T23:40:11.349Z,4.23
2023-01-28T23:42:38.847Z,4.43
2023-01-28T23:45:07.266Z,4.37
2023-01-28T23:47:34.497Z,4.33
2023-01-28T23:50:02.071Z,4.41
2023-01-28T23:52:29.904Z,4.46
2023-01-28T23:54:57.021Z,4.33
2023-01-28T23:57:24.167Z,4.45
2023-01-28T23:59:51.690Z,4.29
